TimeCDT,TemperatureF,Dew PointF,Humidity,Sea Level PressureIn,VisibilityMPH,Wind Direction,Wind SpeedMPH,Gust SpeedMPH,PrecipitationIn,Events,Conditions,WindDirDegrees,DateUTC
12:15 AM,70.0,66.2,88,29.89,10.0,ENE,9.2,-,N/A,,Clear,70,2013-06-18 05:15:00
12:35 AM,70.0,66.2,88,29.87,10.0,ESE,9.2,-,N/A,,Clear,110,2013-06-18 05:35:00
12:55 AM,69.8,65.8,87,29.86,10.0,East,10.4,-,N/A,,Clear,80,2013-06-18 05:55:00
1:15 AM,69.8,65.8,87,29.85,10.0,ESE,13.8,-,N/A,,Clear,110,2013-06-18 06:15:00
1:35 AM,69.8,65.7,87,29.87,10.0,North,5.8,-,N/A,,Scattered Clouds,350,2013-06-18 06:35:00
1:55 AM,69.8,65.8,87,29.90,10.0,North,9.2,-,N/A,,Mostly Cloudy,350,2013-06-18 06:55:00
2:15 AM,69.8,65.7,87,29.90,10.0,North,6.9,-,N/A,,Overcast,360,2013-06-18 07:15:00
2:35 AM,69.8,65.8,87,29.89,10.0,NNW,6.9,-,N/A,,Overcast,340,2013-06-18 07:35:00
2:55 AM,69.4,65.7,88,29.90,10.0,NNW,3.5,-,N/A,,Scattered Clouds,340,2013-06-18 07:55:00
3:15 AM,69.1,65.5,88,29.89,10.0,NNW,3.5,-,N/A,,Mostly Cloudy,340,2013-06-18 08:15:00
3:35 AM,68.9,65.3,88,29.91,10.0,NNW,5.8,-,N/A,,Mostly Cloudy,340,2013-06-18 08:35:00
3:55 AM,69.1,65.5,88,29.91,10.0,North,5.8,-,N/A,,Overcast,350,2013-06-18 08:55:00
4:15 AM,69.1,65.3,88,29.92,10.0,North,5.8,-,N/A,,Overcast,350,2013-06-18 09:15:00
4:35 AM,68.7,64.8,87,29.90,10.0,North,4.6,-,N/A,,Scattered Clouds,360,2013-06-18 09:35:00
4:55 AM,68.0,64.4,88,29.90,10.0,North,5.8,-,N/A,,Clear,360,2013-06-18 09:55:00
5:15 AM,67.6,64.0,88,29.91,10.0,NNW,9.2,-,N/A,,Clear,340,2013-06-18 10:15:00
5:35 AM,67.5,63.9,88,29.92,10.0,North,6.9,-,N/A,,Clear,350,2013-06-18 10:35:00
5:55 AM,67.3,63.7,88,29.92,10.0,NNW,5.8,-,N/A,,Clear,330,2013-06-18 10:55:00
6:15 AM,67.6,64.0,88,29.93,10.0,NNW,8.1,-,N/A,,Clear,340,2013-06-18 11:15:00
6:35 AM,68.0,64.2,88,29.94,10.0,North,8.1,-,N/A,,Clear,350,2013-06-18 11:35:00
6:55 AM,68.9,64.4,86,29.95,10.0,North,9.2,-,N/A,,Clear,350,2013-06-18 11:55:00
7:15 AM,69.8,64.6,83,29.94,10.0,North,4.6,-,N/A,,Clear,360,2013-06-18 12:15:00
7:35 AM,70.5,64.6,81,29.95,10.0,North,6.9,-,N/A,,Clear,360,2013-06-18 12:35:00
7:55 AM,71.6,64.8,79,29.95,10.0,North,8.1,-,N/A,,Clear,360,2013-06-18 12:55:00
8:15 AM,72.5,64.8,77,29.96,10.0,North,8.1,-,N/A,,Clear,350,2013-06-18 13:15:00
8:35 AM,73.8,65.3,75,29.97,10.0,North,6.9,-,N/A,,Clear,10,2013-06-18 13:35:00
8:55 AM,74.3,64.9,72,29.97,10.0,North,8.1,-,N/A,,Clear,360,2013-06-18 13:55:00
9:15 AM,75.4,64.9,70,29.96,10.0,NNE,9.2,-,N/A,,Clear,30,2013-06-18 14:15:00
9:35 AM,76.1,65.5,70,29.97,10.0,NE,6.9,-,N/A,,Clear,40,2013-06-18 14:35:00
9:55 AM,76.6,64.8,67,29.97,10.0,NE,8.1,-,N/A,,Clear,40,2013-06-18 14:55:00
10:15 AM,77.5,65.3,66,29.98,10.0,North,5.8,-,N/A,,Clear,10,2013-06-18 15:15:00
10:35 AM,78.3,65.7,65,29.99,10.0,North,5.8,-,N/A,,Clear,10,2013-06-18 15:35:00
10:55 AM,79.3,65.5,62,29.99,10.0,North,6.9,-,N/A,,Clear,350,2013-06-18 15:55:00
11:15 AM,79.7,64.8,60,29.98,10.0,NNW,6.9,-,N/A,,Clear,340,2013-06-18 16:15:00
11:35 AM,81.0,64.0,56,29.98,10.0,NNW,3.5,-,N/A,,Clear,330,2013-06-18 16:35:00
11:55 AM,82.0,65.7,57,29.98,10.0,NNW,6.9,-,N/A,,Clear,340,2013-06-18 16:55:00
12:15 PM,81.7,64.9,57,29.98,10.0,North,3.5,-,N/A,,Clear,360,2013-06-18 17:15:00
12:35 PM,82.9,64.9,54,29.98,10.0,NNW,3.5,-,N/A,,Clear,330,2013-06-18 17:35:00
12:55 PM,84.0,64.6,52,29.97,10.0,NNW,4.6,-,N/A,,Clear,330,2013-06-18 17:55:00
1:15 PM,84.7,65.8,53,29.97,10.0,NNW,3.5,-,N/A,,Clear,330,2013-06-18 18:15:00
1:35 PM,85.1,64.9,51,29.96,10.0,WNW,6.9,-,N/A,,Clear,290,2013-06-18 18:35:00
1:55 PM,85.6,65.1,50,29.96,10.0,North,4.6,-,N/A,,Clear,360,2013-06-18 18:55:00
2:15 PM,86.5,65.5,49,29.95,10.0,WNW,5.8,-,N/A,,Clear,290,2013-06-18 19:15:00
2:35 PM,85.1,65.5,52,29.95,10.0,West,4.6,-,N/A,,Clear,260,2013-06-18 19:35:00
2:55 PM,86.0,65.8,51,29.95,10.0,West,6.9,-,N/A,,Clear,280,2013-06-18 19:55:00
3:15 PM,86.9,66.4,50,29.94,10.0,WSW,5.8,-,N/A,,Clear,250,2013-06-18 20:15:00
3:35 PM,86.9,66.2,50,29.94,10.0,WSW,4.6,-,N/A,,Clear,250,2013-06-18 20:35:00
3:55 PM,86.4,66.2,51,29.93,10.0,West,5.8,-,N/A,,Clear,270,2013-06-18 20:55:00
4:15 PM,86.9,67.1,52,29.93,10.0,SW,6.9,-,N/A,,Clear,220,2013-06-18 21:15:00
4:35 PM,86.9,66.7,51,29.93,10.0,WSW,3.5,-,N/A,,Clear,250,2013-06-18 21:35:00
4:55 PM,87.1,66.4,50,29.92,10.0,Calm,Calm,-,N/A,,Clear,0,2013-06-18 21:55:00
5:15 PM,86.9,67.1,52,29.91,10.0,SSW,4.6,-,N/A,,Clear,210,2013-06-18 22:15:00
5:35 PM,86.9,66.9,51,29.91,10.0,SSW,5.8,-,N/A,,Clear,200,2013-06-18 22:35:00
5:55 PM,86.9,66.7,51,29.91,10.0,SW,4.6,-,N/A,,Clear,220,2013-06-18 22:55:00
6:15 PM,86.9,66.0,50,29.91,10.0,SW,3.5,-,N/A,,Clear,230,2013-06-18 23:15:00
6:35 PM,86.9,64.6,47,29.91,10.0,Calm,Calm,-,N/A,,Clear,0,2013-06-18 23:35:00
6:55 PM,86.9,65.1,48,29.92,10.0,Calm,Calm,-,N/A,,Clear,0,2013-06-18 23:55:00
7:15 PM,85.3,66.4,53,29.92,10.0,Calm,Calm,-,N/A,,Clear,0,2013-06-19 00:15:00
7:35 PM,84.2,67.5,57,29.92,10.0,Calm,Calm,-,N/A,,Clear,0,2013-06-19 00:35:00
7:55 PM,83.5,66.7,57,29.92,10.0,Calm,Calm,-,N/A,,Clear,0,2013-06-19 00:55:00
8:15 PM,81.0,70.2,70,29.93,10.0,Calm,Calm,-,N/A,,Clear,0,2013-06-19 01:15:00
8:35 PM,80.6,69.8,70,29.92,10.0,Calm,Calm,-,N/A,,Clear,0,2013-06-19 01:35:00
8:55 PM,79.3,70.2,73,29.93,10.0,Calm,Calm,-,N/A,,Clear,0,2013-06-19 01:55:00
9:15 PM,79.2,69.4,72,29.93,10.0,South,4.6,-,N/A,,Clear,190,2013-06-19 02:15:00
9:35 PM,79.3,69.4,72,29.93,10.0,SSW,3.5,-,N/A,,Scattered Clouds,210,2013-06-19 02:35:00
9:55 PM,79.2,68.4,69,29.94,10.0,SSW,4.6,-,N/A,,Scattered Clouds,200,2013-06-19 02:55:00
10:15 PM,78.8,68.5,71,29.94,10.0,SSW,3.5,-,N/A,,Scattered Clouds,200,2013-06-19 03:15:00
10:35 PM,79.0,68.9,71,29.95,10.0,NW,6.9,-,N/A,,Overcast,320,2013-06-19 03:35:00
10:55 PM,77.7,68.4,73,29.95,10.0,SE,3.5,9.2,0.07,Rain,Light Rain,140,2013-06-19 03:55:00
11:15 PM,78.6,68.9,72,29.95,10.0,SSE,4.6,-,N/A,,Overcast,150,2013-06-19 04:15:00
11:35 PM,77.4,68.5,74,29.95,10.0,South,4.6,-,N/A,,Mostly Cloudy,170,2013-06-19 04:35:00
11:55 PM,77.5,69.1,75,29.95,10.0,SW,3.5,-,N/A,,Mostly Cloudy,230,2013-06-19 04:55:00